Time;durP1;ratioP1;P1;durP2;ratioP2;P2;SDS_P1;SDS_P2;PMS_P1;PMS_P2;Temp;Humidity;BMP_temperature;BMP_pressure;BME280_temperature;BME280_humidity;BME280_pressure;Samples;Min_cycle;Max_cycle;Signal;HPM_P1;HPM_P2
2022/02/03 00:00:08;;;;;;;2.13;0.87;;;;;;;5.36;96.45;99717.28;4918487;29;20278;-81
2022/02/03 00:02:43;;;;;;;2.13;0.93;;;;;;;5.26;97.19;99708.75;4889632;29;20194;-81
2022/02/03 00:05:18;;;;;;;2.53;0.90;;;;;;;5.07;98.12;99706.63;4889174;29;20190;-81
2022/02/03 00:16:28;;;;;;;3.20;0.83;;;;;;;5.39;93.46;99716.88;4933391;29;20198;-81
2022/02/03 00:30:17;;;;;;;2.13;0.70;;;;;;;5.50;93.32;99742.19;4905291;29;20614;-81
2022/02/03 00:35:41;;;;;;;3.10;0.90;;;;;;;5.51;94.12;99741.16;4905986;29;20625;-81
2022/02/03 00:49:10;;;;;;;2.93;0.83;;;;;;;5.38;94.73;99759.56;4917069;29;20198;-81
2022/02/03 00:51:42;;;;;;;2.63;0.90;;;;;;;5.39;94.43;99755.91;4934917;29;20194;-81
2022/02/03 00:54:11;;;;;;;2.27;1.10;;;;;;;5.28;95.96;99749.22;4903918;29;20179;-81
2022/02/03 00:57:00;;;;;;;1.97;0.90;;;;;;;5.51;93.87;99763.25;4918539;29;20187;-81
2022/02/03 00:59:34;;;;;;;2.47;0.80;;;;;;;5.59;92.72;99767.66;4904105;29;20530;-80
2022/02/03 01:02:05;;;;;;;2.43;0.80;;;;;;;5.48;91.44;99755.66;4919120;29;20570;-82
2022/02/03 01:04:32;;;;;;;2.73;0.77;;;;;;;5.56;92.08;99760.84;4919362;29;20213;-82
2022/02/03 01:07:02;;;;;;;2.63;1.07;;;;;;;5.69;91.74;99766.34;4888385;29;20666;-81
2022/02/03 01:09:32;;;;;;;2.37;0.83;;;;;;;5.63;93.14;99764.44;4938787;29;20197;-82
2022/02/03 01:12:18;;;;;;;4.17;0.90;;;;;;;5.58;95.07;99769.47;4923023;29;20186;-81
2022/02/03 01:15:08;;;;;;;2.30;1.10;;;;;;;5.53;96.54;99781.66;4894128;29;20206;-81
2022/02/03 01:17:50;;;;;;;1.57;0.87;;;;;;;5.55;94.33;99774.34;4909532;29;20182;-81
2022/02/03 01:45:19;;;;;;;1.57;0.80;;;;;;;5.17;96.48;99765.63;4943146;29;20561;-81
2022/02/03 01:48:04;;;;;;;1.73;0.87;;;;;;;5.32;95.16;99774.41;4895142;29;20581;-83
2022/02/03 01:53:20;;;;;;;2.27;0.80;;;;;;;5.24;94.82;99790.44;4928114;29;20494;-81
2022/02/03 01:55:54;;;;;;;2.03;0.80;;;;;;;5.36;94.55;99791.66;4910598;29;20238;-81
2022/02/03 01:58:29;;;;;;;2.40;0.93;;;;;;;5.42;95.56;99795.41;4925788;29;20186;-81
2022/02/03 02:01:00;;;;;;;2.67;0.70;;;;;;;5.29;96.95;99782.75;4909762;29;20227;-81
2022/02/03 02:03:38;;;;;;;2.30;0.93;;;;;;;5.26;98.14;99786.63;4925904;29;20186;-81
2022/02/03 02:06:19;;;;;;;3.50;0.90;;;;;;;5.18;99.07;99788.53;4925644;29;20637;-82
2022/02/03 02:09:17;;;;;;;2.17;1.10;;;;;;;5.07;100.00;99813.69;4925473;29;20182;-81
2022/02/03 02:12:23;;;;;;;2.27;1.00;;;;;;;5.07;100.00;99812.84;4924743;29;20559;-81
2022/02/03 02:42:59;;;;;;;3.57;1.23;;;;;;;5.07;100.00;99834.94;4887294;29;20318;-82
2022/02/03 02:45:42;;;;;;;2.50;1.40;;;;;;;4.97;100.00;99831.69;4904032;29;20200;-81
2022/02/03 02:48:18;;;;;;;3.90;1.27;;;;;;;5.02;100.00;99845.25;4887687;29;20614;-83
2022/02/03 02:50:58;;;;;;;2.83;1.00;;;;;;;5.00;100.00;99817.22;4855823;29;20239;-81
2022/02/03 02:54:33;;;;;;;2.50;1.00;;;;;;;5.02;100.00;99824.03;4888160;29;20215;-82
2022/02/03 02:57:10;;;;;;;3.63;1.20;;;;;;;5.06;100.00;99808.53;4877060;29;20262;-81
2022/02/03 03:30:03;;;;;;;2.13;1.00;;;;;;;5.04;88.36;99847.75;4885971;29;20195;-82
2022/02/03 03:33:09;;;;;;;3.63;0.83;;;;;;;5.10;88.39;99842.53;4888830;29;20605;-82
2022/02/03 03:35:43;;;;;;;4.30;1.00;;;;;;;5.06;87.07;99838.59;4886067;29;20183;-81
2022/02/03 03:38:13;;;;;;;1.37;0.90;;;;;;;5.14;84.97;99843.00;4886969;29;20542;-81
2022/02/03 03:40:43;;;;;;;3.07;1.00;;;;;;;5.01;86.00;99840.13;4890200;29;20234;-81
2022/02/03 03:43:12;;;;;;;3.63;0.90;;;;;;;5.07;83.81;99837.59;4905223;29;20277;-82
2022/02/03 03:45:46;;;;;;;5.23;0.77;;;;;;;5.14;79.70;99837.69;4889529;29;20203;-81
2022/02/03 03:48:18;;;;;;;2.67;1.10;;;;;;;5.04;81.27;99837.94;4888543;29;20209;-81
2022/02/03 03:50:51;;;;;;;2.63;1.00;;;;;;;5.17;81.48;99850.63;4888918;29;20285;-80
2022/02/03 03:53:27;;;;;;;1.83;0.90;;;;;;;5.18;80.37;99860.25;4888338;29;20209;-81
2022/02/03 03:56:07;;;;;;;2.07;0.90;;;;;;;5.29;80.96;99855.31;4890118;29;20201;-81
2022/02/03 04:39:30;;;;;;;5.30;1.20;;;;;;;4.98;96.45;99910.34;4920805;29;20186;-81
2022/02/03 04:42:40;;;;;;;2.57;1.20;;;;;;;4.97;99.11;99897.25;4907929;29;20693;-81
2022/02/03 04:51:20;;;;;;;4.40;1.40;;;;;;;4.88;100.00;99899.13;4919928;29;20300;-81
2022/02/03 04:54:21;;;;;;;2.33;1.17;;;;;;;4.76;100.00;99917.28;4890240;29;20206;-80
2022/02/03 05:05:16;;;;;;;3.43;1.23;;;;;;;4.55;100.00;99897.69;4919641;29;20190;-81
2022/02/03 05:35:28;;;;;;;3.87;1.17;;;;;;;3.88;100.00;99884.03;4902140;29;20195;-81
2022/02/03 05:44:01;;;;;;;4.07;1.40;;;;;;;3.77;100.00;99889.72;4888919;29;20214;-81
2022/02/03 06:05:45;;;;;;;4.20;1.30;;;;;;;3.22;100.00;99919.56;4887229;29;20549;-80
2022/02/03 06:08:29;;;;;;;2.90;1.30;;;;;;;3.16;100.00;99922.91;4889151;29;20550;-80
2022/02/03 06:21:51;;;;;;;2.97;1.27;;;;;;;2.74;100.00;99944.19;4904920;29;20183;-81
2022/02/03 06:29:37;;;;;;;5.27;1.50;;;;;;;2.53;100.00;99972.84;4905802;29;20229;-81
2022/02/03 06:32:04;;;;;;;8.10;1.40;;;;;;;2.58;100.00;99971.41;4906793;29;20609;-81
2022/02/03 06:34:31;;;;;;;3.37;1.00;;;;;;;2.59;100.00;99973.06;4928786;29;20283;-81
2022/02/03 06:36:58;;;;;;;5.20;1.30;;;;;;;2.59;100.00;99982.81;4928647;29;20273;-80
2022/02/03 06:39:26;;;;;;;4.50;1.30;;;;;;;2.76;100.00;99984.50;4928564;29;20198;-81
2022/02/03 06:41:57;;;;;;;3.93;1.30;;;;;;;2.71;100.00;99978.06;4905411;29;20325;-81
2022/02/03 06:44:34;;;;;;;3.90;1.60;;;;;;;2.84;100.00;99989.84;4906276;29;20202;-80
2022/02/03 06:47:24;;;;;;;3.57;1.60;;;;;;;3.00;100.00;99996.97;4906002;29;20186;-82
2022/02/03 06:52:39;;;;;;;6.67;2.10;;;;;;;3.09;100.00;99985.41;4890428;29;20297;-81
2022/02/03 06:55:12;;;;;;;6.60;2.10;;;;;;;3.16;100.00;99996.19;4891297;29;20187;-81
2022/02/03 06:57:53;;;;;;;3.47;1.80;;;;;;;3.30;100.00;99998.19;4903506;29;20197;-81
2022/02/03 07:00:28;;;;;;;4.43;1.90;;;;;;;3.43;100.00;100001.19;4890144;29;20253;-81
2022/02/03 07:02:58;;;;;;;5.37;2.00;;;;;;;3.44;100.00;100006.34;4911444;29;20209;-79
2022/02/03 07:05:25;;;;;;;4.00;1.70;;;;;;;3.45;100.00;99999.22;4898697;29;20584;-80
2022/02/03 07:07:52;;;;;;;4.47;2.03;;;;;;;3.48;100.00;100020.91;4896373;29;20198;-80
2022/02/03 07:10:19;;;;;;;5.20;1.87;;;;;;;3.55;100.00;100023.69;4891017;29;20221;-80
2022/02/03 07:12:46;;;;;;;4.77;2.00;;;;;;;3.53;100.00;100020.41;4904593;29;20202;-81
2022/02/03 07:15:13;;;;;;;6.37;2.27;;;;;;;3.57;100.00;100019.06;4912442;29;20202;-81
2022/02/03 07:17:40;;;;;;;5.83;2.17;;;;;;;3.48;100.00;100020.91;4891586;29;20193;-81
2022/02/03 07:20:12;;;;;;;6.50;2.13;;;;;;;3.44;100.00;100032.81;4890031;29;20225;-80
2022/02/03 07:22:40;;;;;;;5.03;2.20;;;;;;;3.36;100.00;100030.13;4888034;29;20198;-79
2022/02/03 07:25:08;;;;;;;6.07;2.40;;;;;;;3.55;100.00;100048.38;4922275;29;20198;-80
2022/02/03 07:27:35;;;;;;;4.60;1.80;;;;;;;3.57;100.00;100048.22;4905176;29;20642;-81
2022/02/03 07:30:05;;;;;;;2.93;1.67;;;;;;;3.58;100.00;100052.53;4914920;29;20202;-81
2022/02/03 07:32:32;;;;;;;7.87;2.10;;;;;;;3.64;100.00;100056.34;4890327;29;20194;-80
2022/02/03 07:34:59;;;;;;;4.50;2.00;;;;;;;3.74;100.00;100062.28;4873804;29;20303;-81
2022/02/03 07:37:27;;;;;;;5.57;1.90;;;;;;;3.81;100.00;100060.66;4893054;29;20221;-82
2022/02/03 07:39:55;;;;;;;5.53;2.00;;;;;;;3.94;100.00;100071.59;4915182;29;20240;-82
2022/02/03 07:42:27;;;;;;;4.37;2.10;;;;;;;3.88;100.00;100067.75;4916560;29;20241;-82
2022/02/03 07:44:56;;;;;;;3.17;1.93;;;;;;;4.08;100.00;100076.22;4902181;29;20245;-81
2022/02/03 07:47:23;;;;;;;3.83;2.00;;;;;;;4.11;100.00;100075.03;4902413;29;20217;-81
2022/02/03 07:49:50;;;;;;;6.17;2.13;;;;;;;4.15;100.00;100085.19;4931423;29;20198;-81
2022/02/03 07:52:16;;;;;;;3.53;2.00;;;;;;;4.16;100.00;100065.59;4888576;29;20286;-81
2022/02/03 07:54:43;;;;;;;3.43;2.30;;;;;;;4.15;100.00;100071.09;4902342;29;20231;-80
2022/02/03 07:57:10;;;;;;;6.50;2.03;;;;;;;4.22;100.00;100059.63;4915377;29;20277;-81
2022/02/03 07:59:37;;;;;;;6.03;2.17;;;;;;;4.36;100.00;100066.91;4919393;29;20270;-81
2022/02/03 08:02:05;;;;;;;4.03;2.17;;;;;;;4.35;100.00;100067.06;4917096;29;20253;-80
2022/02/03 08:04:33;;;;;;;5.00;2.30;;;;;;;4.43;100.00;100067.84;4915554;29;20478;-81
2022/02/03 08:07:01;;;;;;;5.77;2.10;;;;;;;4.49;100.00;100060.22;4916102;29;20206;-80
2022/02/03 08:09:39;;;;;;;7.03;2.40;;;;;;;4.57;100.00;100069.00;4914855;29;20238;-80
2022/02/03 08:12:10;;;;;;;6.53;2.67;;;;;;;4.61;100.00;100067.66;4917899;29;20241;-81
2022/02/03 08:14:42;;;;;;;5.37;2.57;;;;;;;4.72;100.00;100079.72;4914245;29;20246;-80
2022/02/03 08:17:15;;;;;;;5.07;2.27;;;;;;;4.79;100.00;100080.72;4906512;29;20384;-81
2022/02/03 08:22:23;;;;;;;4.37;2.10;;;;;;;4.84;100.00;100076.53;4906967;29;20240;-80
2022/02/03 08:24:54;;;;;;;6.00;2.30;;;;;;;4.91;100.00;100057.25;4905060;29;20214;-81
2022/02/03 08:30:34;;;;;;;5.43;2.40;;;;;;;5.00;100.00;100053.56;4875472;29;20257;-80
2022/02/03 08:33:04;;;;;;;6.70;2.57;;;;;;;5.04;100.00;100068.97;4921542;29;20708;-80
2022/02/03 08:38:16;;;;;;;7.03;2.67;;;;;;;5.25;100.00;100065.72;4886323;29;20214;-80
2022/02/03 08:41:04;;;;;;;5.43;2.27;;;;;;;5.24;100.00;100066.72;4904230;29;20237;-80
2022/02/03 08:43:32;;;;;;;6.47;3.37;;;;;;;5.36;100.00;100056.53;4920516;29;20288;-80
2022/02/03 08:46:01;;;;;;;5.47;2.80;;;;;;;5.43;100.00;100068.09;4904525;29;20197;-81
2022/02/03 08:48:27;;;;;;;4.83;2.40;;;;;;;5.51;100.00;100068.03;4876372;29;20201;-82
2022/02/03 08:51:02;;;;;;;5.63;2.63;;;;;;;5.71;100.00;100070.06;4904238;29;20190;-80
2022/02/03 08:53:54;;;;;;;4.87;2.30;;;;;;;5.82;100.00;100074.16;4903752;29;20579;-80
2022/02/03 09:51:43;;;;;;;7.43;2.27;;;;;;;7.38;93.10;100060.63;4887215;29;20206;-80
2022/02/03 09:59:19;;;;;;;5.20;2.57;;;;;;;7.72;93.79;100051.94;4903850;29;20190;-81
2022/02/03 10:01:55;;;;;;;6.00;2.07;;;;;;;7.72;94.43;100054.63;4904471;29;20281;-81
2022/02/03 10:04:42;;;;;;;6.40;2.33;;;;;;;7.77;90.71;100056.72;4906937;29;21014;-80
2022/02/03 10:07:17;;;;;;;5.93;2.13;;;;;;;7.78;90.07;100040.53;4923675;29;20194;-80
2022/02/03 10:09:45;;;;;;;5.60;2.30;;;;;;;7.83;90.32;100051.44;4892682;29;20578;-80
2022/02/03 10:12:13;;;;;;;6.03;2.10;;;;;;;7.79;88.45;100042.16;4891326;29;20251;-82
2022/02/03 10:14:42;;;;;;;5.23;2.10;;;;;;;7.96;88.21;100042.72;4891200;29;20545;-81
2022/02/03 10:17:09;;;;;;;3.63;2.00;;;;;;;8.05;80.13;100044.22;4891011;29;20260;-81
2022/02/03 10:19:39;;;;;;;3.97;1.50;;;;;;;8.22;78.33;100047.44;4891691;29;20197;-80
2022/02/03 10:22:32;;;;;;;2.43;1.30;;;;;;;8.46;74.68;100044.34;4907117;29;20193;-80
2022/02/03 10:25:08;;;;;;;3.13;1.20;;;;;;;8.63;72.09;100035.00;4904087;29;20218;-80
2022/02/03 10:27:39;;;;;;;4.47;1.40;;;;;;;8.97;68.97;100033.31;4892438;29;20190;-80
2022/02/03 10:30:23;;;;;;;4.13;1.20;;;;;;;9.13;67.30;100035.66;4891428;29;20186;-80
2022/02/03 10:32:52;;;;;;;3.67;1.30;;;;;;;8.93;63.70;100019.53;4892831;29;20182;-83
2022/02/03 10:44:16;;;;;;;4.87;1.20;;;;;;;9.43;62.39;100018.22;4909014;29;20276;-80
2022/02/03 10:50:08;;;;;;;2.90;1.00;;;;;;;9.71;54.86;100010.88;4911358;29;20223;-80
2022/02/03 10:52:58;;;;;;;2.40;0.90;;;;;;;10.03;55.81;100001.19;4894735;29;20261;-81
2022/02/03 11:01:13;;;;;;;2.73;1.20;;;;;;;10.81;52.98;99995.91;4908666;29;20237;-82
2022/02/03 11:11:16;;;;;;;4.73;1.40;;;;;;;11.35;47.60;99984.69;4923162;29;20310;-78
2022/02/03 11:13:43;;;;;;;2.87;1.00;;;;;;;11.27;45.68;99985.78;4892672;29;20254;-81
2022/02/03 11:16:11;;;;;;;1.40;1.07;;;;;;;11.02;45.25;99968.78;4906786;29;20198;-81
2022/02/03 11:18:39;;;;;;;2.43;0.93;;;;;;;11.09;45.63;99964.25;4892229;29;20609;-81
2022/02/03 11:21:07;;;;;;;1.27;0.60;;;;;;;11.04;44.75;99964.88;4907753;29;20221;-80
2022/02/03 11:23:39;;;;;;;2.73;0.80;;;;;;;11.09;45.35;99968.78;4907156;29;20213;-81
2022/02/03 11:26:25;;;;;;;2.63;1.03;;;;;;;11.08;45.72;99961.75;4907839;29;20219;-81
2022/02/03 12:02:33;;;;;;;1.87;0.70;;;;;;;13.40;39.56;99890.09;4887049;29;20198;-79
2022/02/03 12:11:07;;;;;;;2.03;1.00;;;;;;;13.12;38.72;99867.34;4903230;29;20218;-79
2022/02/03 12:16:54;;;;;;;3.23;0.90;;;;;;;13.36;39.54;99854.75;4919750;29;20532;-79
2022/02/03 12:19:37;;;;;;;2.37;0.70;;;;;;;13.18;37.47;99847.59;4907754;29;20225;-79
2022/02/03 12:24:50;;;;;;;2.80;0.90;;;;;;;13.20;39.08;99839.31;4903154;29;20210;-80
2022/02/03 12:27:50;;;;;;;1.63;0.83;;;;;;;13.32;40.48;99839.31;4885880;29;20198;-80
2022/02/03 12:31:11;;;;;;;3.40;1.20;;;;;;;13.37;39.88;99836.75;4916400;29;20571;-79
2022/02/03 12:38:52;;;;;;;1.87;0.80;;;;;;;13.99;37.83;99827.13;4887566;29;20257;-79
2022/02/03 12:41:22;;;;;;;2.53;0.90;;;;;;;14.20;37.76;99822.97;4898931;29;20234;-79
2022/02/03 12:44:00;;;;;;;2.83;0.80;;;;;;;14.26;37.48;99825.56;4900468;29;20486;-81
2022/02/03 12:46:28;;;;;;;1.97;0.70;;;;;;;14.26;36.45;99816.66;4901349;29;20202;-79
2022/02/03 12:48:59;;;;;;;1.33;0.70;;;;;;;14.29;35.58;99824.25;4884340;29;20513;-79
2022/02/03 12:51:27;;;;;;;3.00;0.87;;;;;;;13.96;35.23;99823.03;4884270;29;20203;-81
2022/02/03 12:53:55;;;;;;;1.93;0.90;;;;;;;14.00;36.94;99828.75;4899944;29;20485;-78
2022/02/03 12:56:25;;;;;;;2.03;0.73;;;;;;;14.07;37.73;99826.75;4884507;29;20674;-79
2022/02/03 12:59:00;;;;;;;1.83;0.90;;;;;;;14.13;36.80;99819.63;4883836;29;20198;-79
2022/02/03 13:01:37;;;;;;;1.73;0.90;;;;;;;14.17;36.62;99818.06;4876402;29;20830;-78
2022/02/03 13:04:10;;;;;;;1.43;0.70;;;;;;;13.97;38.13;99823.84;4885331;29;20623;-81
2022/02/03 13:06:42;;;;;;;1.23;0.90;;;;;;;14.00;36.99;99824.19;4884472;29;20207;-80
2022/02/03 13:09:11;;;;;;;2.23;1.13;;;;;;;13.80;38.15;99823.78;4884584;29;20203;-78
2022/02/03 13:11:46;;;;;;;1.70;1.30;;;;;;;13.78;38.96;99819.66;4899961;29;20191;-78
2022/02/03 13:14:32;;;;;;;2.37;1.50;;;;;;;13.75;40.15;99822.84;4884901;29;20187;-79
2022/02/03 13:17:13;;;;;;;4.97;1.20;;;;;;;13.50;39.10;99807.72;4882876;29;20202;-78
2022/02/03 13:20:20;;;;;;;3.13;1.27;;;;;;;13.37;40.46;99805.28;4902687;29;20198;-79
2022/02/03 13:22:54;;;;;;;2.73;1.33;;;;;;;13.10;41.13;99795.97;4901126;29;20186;-78
2022/02/03 13:25:38;;;;;;;3.77;1.83;;;;;;;13.13;40.86;99801.75;4900447;29;20633;-79
2022/02/03 13:33:13;;;;;;;3.30;1.10;;;;;;;12.92;41.69;99796.91;4898917;29;20190;-79
2022/02/03 13:35:47;;;;;;;3.23;1.30;;;;;;;12.96;41.21;99808.81;4883894;29;20209;-78
2022/02/03 13:38:29;;;;;;;3.07;1.33;;;;;;;12.95;42.13;99787.53;4885067;29;20209;-78
2022/02/03 13:41:16;;;;;;;3.07;1.13;;;;;;;12.75;42.62;99790.50;4903079;29;20256;-79
2022/02/03 13:43:44;;;;;;;1.90;1.10;;;;;;;12.67;41.98;99780.09;4904021;29;20214;-82
2022/02/03 13:46:13;;;;;;;3.03;1.17;;;;;;;12.61;42.25;99792.56;4903542;29;20652;-78
2022/02/03 13:48:40;;;;;;;3.90;1.70;;;;;;;12.55;41.73;99792.69;4904188;29;20494;-78
2022/02/03 13:51:11;;;;;;;2.70;1.40;;;;;;;12.45;41.66;99790.56;4888561;29;20582;-78
2022/02/03 13:53:48;;;;;;;4.30;1.73;;;;;;;12.46;41.99;99784.09;4920682;29;20186;-78
2022/02/03 14:29:15;;;;;;;2.37;1.30;;;;;;;11.18;45.07;99751.09;4904828;29;20483;-77
2022/02/03 14:31:45;;;;;;;2.70;1.07;;;;;;;11.14;44.79;99741.84;4920251;29;20336;-78
2022/02/03 14:34:22;;;;;;;2.90;1.10;;;;;;;11.11;45.27;99742.25;4889333;29;20189;-78
2022/02/03 14:36:59;;;;;;;2.13;1.33;;;;;;;11.09;45.89;99744.38;4921395;29;20178;-79
2022/02/03 14:39:41;;;;;;;3.13;2.30;;;;;;;11.07;45.88;99732.19;4920999;29;20183;-78
2022/02/03 14:42:08;;;;;;;3.67;1.67;;;;;;;11.02;46.90;99725.66;4906259;29;20563;-79
2022/02/03 14:44:36;;;;;;;5.17;2.57;;;;;;;11.06;46.49;99734.06;4920304;29;20297;-78
2022/02/03 14:47:03;;;;;;;3.03;1.90;;;;;;;10.91;47.93;99723.69;4885748;29;20203;-81
2022/02/03 14:49:30;;;;;;;4.70;2.50;;;;;;;10.88;48.42;99734.00;4904112;29;20634;-79
2022/02/03 14:52:11;;;;;;;4.30;2.80;;;;;;;10.93;48.38;99718.09;4906285;29;20205;-80
2022/02/03 15:00:12;;;;;;;5.03;3.20;;;;;;;10.84;49.37;99717.56;4891261;29;20202;-81
2022/02/03 15:02:39;;;;;;;4.37;2.53;;;;;;;10.73;50.01;99718.25;4889120;29;20281;-80
2022/02/03 15:05:10;;;;;;;5.83;3.20;;;;;;;10.67;51.09;99713.78;4920683;29;20216;-80
2022/02/03 15:07:41;;;;;;;5.23;2.90;;;;;;;10.59;52.28;99722.91;4904850;29;20198;-81
2022/02/03 15:15:05;;;;;;;4.67;1.87;;;;;;;10.21;55.47;99706.06;4903206;29;20203;-80
2022/02/03 15:17:35;;;;;;;3.70;1.60;;;;;;;10.14;56.17;99710.59;4903480;29;20190;-82
2022/02/03 15:20:05;;;;;;;3.53;2.00;;;;;;;10.11;56.86;99701.16;4880949;29;20296;-80
2022/02/03 15:22:32;;;;;;;4.77;2.10;;;;;;;10.06;57.52;99686.78;4903271;29;20222;-79
2022/02/03 15:25:02;;;;;;;4.20;1.90;;;;;;;10.07;57.71;99685.75;4903678;29;20721;-81
2022/02/03 15:27:29;;;;;;;3.70;1.90;;;;;;;9.93;59.42;99693.03;4903587;29;20221;-81
2022/02/03 15:30:00;;;;;;;4.73;1.97;;;;;;;9.83;59.85;99687.31;4887762;29;20237;-80
2022/02/03 15:32:26;;;;;;;2.63;1.73;;;;;;;9.76;60.08;99686.50;4886891;29;20198;-80
2022/02/03 15:34:54;;;;;;;4.07;1.67;;;;;;;9.64;60.65;99664.97;4904377;29;20228;-80
2022/02/03 15:37:22;;;;;;;4.23;1.93;;;;;;;9.60;61.11;99671.78;4904394;29;20295;-80
2022/02/03 15:39:51;;;;;;;4.70;1.60;;;;;;;9.45;62.42;99668.53;4903860;29;20625;-81
2022/02/03 15:42:26;;;;;;;4.60;2.00;;;;;;;9.28;62.61;99665.47;4904424;29;20233;-81
2022/02/03 15:44:55;;;;;;;3.63;1.80;;;;;;;9.09;64.53;99662.88;4904301;29;20211;-80
2022/02/03 15:47:30;;;;;;;9.57;4.10;;;;;;;9.01;65.22;99663.91;4887777;29;20368;-80
2022/02/03 16:01:04;;;;;;;10.57;5.60;;;;;;;8.36;68.02;99654.09;4887756;29;20187;-80
2022/02/03 16:03:50;;;;;;;7.17;5.70;;;;;;;8.19;69.63;99660.81;4919598;29;20527;-80
2022/02/03 16:17:18;;;;;;;7.37;3.90;;;;;;;7.91;71.45;99637.78;4889638;29;20194;-81
2022/02/03 16:19:59;;;;;;;6.70;3.93;;;;;;;7.89;72.55;99631.00;4887325;29;20194;-80
2022/02/03 16:22:48;;;;;;;6.93;4.70;;;;;;;7.91;72.16;99621.78;4902508;29;20287;-80
2022/02/03 16:52:44;;;;;;;7.53;5.30;;;;;;;7.57;76.80;99605.91;4886320;29;20193;-77
2022/02/03 16:55:16;;;;;;;5.93;4.03;;;;;;;7.49;77.29;99582.09;4920863;29;20244;-77
2022/02/03 16:57:44;;;;;;;5.50;3.80;;;;;;;7.46;77.19;99588.66;4904952;29;20262;-77
2022/02/03 17:00:14;;;;;;;4.37;3.70;;;;;;;7.42;77.71;99582.06;4904705;29;20186;-78
2022/02/03 17:02:58;;;;;;;7.53;4.80;;;;;;;7.52;76.77;99597.69;4909361;29;20257;-77
2022/02/03 17:05:25;;;;;;;12.17;9.77;;;;;;;7.49;76.85;99598.09;4904633;29;20582;-76
2022/02/03 17:07:52;;;;;;;8.97;7.70;;;;;;;7.41;78.62;99598.28;4904518;29;20217;-77
2022/02/03 17:10:20;;;;;;;11.80;7.90;;;;;;;7.27;78.82;99577.91;4937586;29;20187;-82
2022/02/03 17:12:47;;;;;;;8.40;6.33;;;;;;;7.28;78.80;99582.25;4920467;29;20205;-83
2022/02/03 17:15:14;;;;;;;9.23;5.93;;;;;;;7.16;79.26;99568.66;4904755;29;20590;-82
2022/02/03 17:17:42;;;;;;;7.67;5.37;;;;;;;7.19;78.36;99583.41;4910069;29;20273;-81
2022/02/03 17:20:09;;;;;;;7.37;5.63;;;;;;;7.24;78.49;99579.13;4900933;29;20223;-81
2022/02/03 17:22:41;;;;;;;8.17;5.40;;;;;;;7.16;77.66;99573.16;4901665;29;20202;-82
2022/02/03 17:27:48;;;;;;;7.67;5.83;;;;;;;7.07;79.08;99568.00;4883011;29;20289;-82
2022/02/03 17:30:20;;;;;;;9.10;6.13;;;;;;;7.03;79.38;99558.78;4898911;29;20689;-81
2022/02/03 18:11:23;;;;;;;6.27;3.87;;;;;;;7.02;76.41;99482.53;4884945;29;20199;-81
2022/02/03 18:30:54;;;;;;;6.43;4.40;;;;;;;6.80;77.36;99464.22;4906679;29;20258;-84
2022/02/03 18:36:11;;;;;;;5.00;4.20;;;;;;;6.88;76.54;99458.72;4903445;29;20187;-82
2022/02/03 18:48:30;;;;;;;8.30;4.57;;;;;;;6.62;79.52;99454.91;4905690;29;20194;-81
2022/02/03 18:52:25;;;;;;;7.50;4.33;;;;;;;6.69;79.60;99443.47;4903073;29;20273;-82
2022/02/03 18:55:11;;;;;;;7.03;4.60;;;;;;;6.76;79.24;99452.34;4918350;29;20186;-83
2022/02/03 18:57:49;;;;;;;6.07;3.90;;;;;;;6.69;80.50;99448.81;4905878;29;20660;-83
2022/02/03 19:00:50;;;;;;;4.03;3.00;;;;;;;6.63;80.83;99437.09;4902754;29;20199;-82
2022/02/03 19:25:15;;;;;;;5.33;3.77;;;;;;;6.36;84.60;99414.88;4887072;29;20201;-81
2022/02/03 20:09:02;;;;;;;5.00;3.37;;;;;;;6.19;83.92;99363.03;4903878;29;20522;-82
2022/02/03 20:11:28;;;;;;;7.83;3.70;;;;;;;6.16;84.06;99355.44;4900876;29;20198;-82
2022/02/03 20:13:55;;;;;;;5.13;3.53;;;;;;;6.11;84.44;99348.03;4886214;29;20285;-81
2022/02/03 20:16:23;;;;;;;7.23;4.33;;;;;;;6.15;84.45;99359.97;4886194;29;20197;-83
2022/02/03 20:18:49;;;;;;;6.43;4.33;;;;;;;6.09;85.23;99339.47;4886175;29;20224;-83
2022/02/03 20:21:16;;;;;;;5.10;3.73;;;;;;;6.09;85.10;99355.41;4884232;29;20202;-82
2022/02/03 20:23:44;;;;;;;6.43;3.60;;;;;;;6.07;85.39;99346.81;4886583;29;20212;-82
2022/02/03 20:26:14;;;;;;;4.73;3.20;;;;;;;5.99;86.53;99333.69;4901444;29;20545;-83
2022/02/03 20:28:40;;;;;;;5.17;3.50;;;;;;;5.98;86.02;99337.34;4901205;29;20232;-82
2022/02/03 20:31:08;;;;;;;5.17;3.40;;;;;;;5.89;86.65;99317.25;4901369;29;20194;-81
2022/02/03 20:33:37;;;;;;;3.77;2.97;;;;;;;5.90;87.70;99334.03;4870555;29;20221;-83
2022/02/03 20:36:06;;;;;;;4.43;3.20;;;;;;;5.86;88.01;99332.75;4917795;29;20198;-83
2022/02/03 20:38:32;;;;;;;7.83;6.30;;;;;;;5.74;87.80;99333.28;4885128;29;20205;-81
2022/02/03 20:40:59;;;;;;;7.13;5.30;;;;;;;5.67;89.59;99327.13;4901399;29;20270;-81
2022/02/03 20:43:26;;;;;;;5.80;4.33;;;;;;;5.74;88.02;99316.53;4885690;29;20208;-81
2022/02/03 20:45:53;;;;;;;4.87;3.37;;;;;;;5.60;91.43;99330.78;4884318;29;20615;-83
2022/02/03 20:48:20;;;;;;;4.87;3.50;;;;;;;5.56;92.07;99326.84;4900186;29;20224;-83
2022/02/03 20:50:47;;;;;;;5.63;3.30;;;;;;;5.53;93.46;99319.28;4900851;29;20194;-81
2022/02/03 20:53:14;;;;;;;4.70;3.50;;;;;;;5.37;94.60;99315.06;4885348;29;20871;-83
2022/02/03 20:55:42;;;;;;;4.77;3.20;;;;;;;5.20;97.64;99308.41;4901079;29;20265;-82
2022/02/03 20:58:15;;;;;;;4.80;3.30;;;;;;;5.07;98.99;99295.03;4917338;29;20190;-82
2022/02/03 21:00:58;;;;;;;4.10;3.17;;;;;;;4.95;100.00;99307.16;4901940;29;20578;-82
2022/02/03 21:03:34;;;;;;;5.33;3.20;;;;;;;4.84;100.00;99290.78;4886524;29;20206;-81
2022/02/03 21:06:02;;;;;;;3.60;2.90;;;;;;;4.76;100.00;99276.78;4870251;29;20214;-81
2022/02/03 21:08:32;;;;;;;5.30;3.33;;;;;;;4.68;100.00;99272.44;4885048;29;20198;-82
2022/02/03 21:10:59;;;;;;;5.70;3.60;;;;;;;4.58;100.00;99271.94;4902552;29;20210;-81
2022/02/03 21:13:26;;;;;;;4.50;3.33;;;;;;;4.41;100.00;99258.09;4899610;29;20194;-82
2022/02/03 21:15:54;;;;;;;5.20;3.43;;;;;;;4.31;100.00;99262.06;4886024;29;20210;-83
2022/02/03 21:18:21;;;;;;;4.60;3.33;;;;;;;4.28;100.00;99259.81;4886732;29;20634;-82
2022/02/03 21:20:51;;;;;;;5.80;3.20;;;;;;;4.36;100.00;99257.84;4901731;29;20346;-82
2022/02/03 21:23:18;;;;;;;4.23;3.27;;;;;;;4.12;100.00;99239.63;4901787;29;20269;-81
2022/02/03 21:25:49;;;;;;;4.67;3.47;;;;;;;4.17;100.00;99252.34;4918038;29;20206;-82
2022/02/03 21:28:22;;;;;;;4.83;3.60;;;;;;;4.04;100.00;99263.63;4902547;29;20190;-82
2022/02/03 21:30:49;;;;;;;5.27;3.27;;;;;;;3.96;100.00;99269.88;4899950;29;20187;-82
2022/02/03 21:33:23;;;;;;;6.07;3.03;;;;;;;3.90;100.00;99264.47;4900340;29;20577;-81
2022/02/03 21:35:51;;;;;;;4.50;3.57;;;;;;;3.85;100.00;99259.72;4901003;29;20614;-82
2022/02/03 21:38:18;;;;;;;5.93;3.47;;;;;;;3.80;100.00;99254.16;4885156;29;20194;-83
2022/02/03 21:40:45;;;;;;;6.90;3.43;;;;;;;3.76;100.00;99238.81;4901820;29;20249;-82
2022/02/03 21:43:11;;;;;;;5.93;3.40;;;;;;;3.68;100.00;99245.06;4886245;29;20187;-83
2022/02/03 21:45:38;;;;;;;6.03;3.40;;;;;;;3.73;100.00;99255.09;4886371;29;20615;-82
2022/02/03 21:48:06;;;;;;;4.43;3.00;;;;;;;3.67;100.00;99263.78;4885644;29;20267;-82
2022/02/03 21:50:36;;;;;;;5.67;3.07;;;;;;;3.51;100.00;99255.00;4901621;29;20247;-82
2022/02/03 21:53:11;;;;;;;4.30;3.40;;;;;;;3.52;100.00;99250.53;4918279;29;20203;-82
2022/02/03 21:55:37;;;;;;;5.03;3.37;;;;;;;3.47;100.00;99252.91;4885205;29;20194;-83
2022/02/03 21:58:04;;;;;;;5.23;3.07;;;;;;;3.38;100.00;99257.47;4901234;29;20301;-81
2022/02/03 22:00:31;;;;;;;5.27;3.50;;;;;;;3.29;100.00;99241.88;4904087;29;20204;-82
2022/02/03 22:02:58;;;;;;;5.53;3.90;;;;;;;3.24;100.00;99241.59;4889630;29;20190;-82
2022/02/03 22:05:24;;;;;;;5.47;3.60;;;;;;;3.27;100.00;99254.44;4904984;29;20201;-82
2022/02/03 22:07:51;;;;;;;4.70;3.60;;;;;;;3.20;100.00;99245.59;4905385;29;20194;-83
2022/02/03 22:10:20;;;;;;;5.63;3.63;;;;;;;3.17;100.00;99248.63;4889724;29;20540;-81
2022/02/03 22:12:50;;;;;;;6.50;3.33;;;;;;;3.16;100.00;99244.31;4889923;29;20216;-81
2022/02/03 22:15:18;;;;;;;6.47;3.53;;;;;;;3.14;100.00;99251.63;4922125;29;20205;-82
2022/02/03 22:17:47;;;;;;;5.33;3.23;;;;;;;3.15;100.00;99247.97;4889487;29;20632;-81
2022/02/03 22:20:23;;;;;;;4.27;3.00;;;;;;;3.10;100.00;99246.69;4890060;29;20205;-82
2022/02/03 22:42:29;;;;;;;6.90;3.90;;;;;;;2.70;100.00;99231.22;4902587;29;20249;-81
2022/02/03 22:45:49;;;;;;;6.93;3.97;;;;;;;2.67;100.00;99229.72;4874558;29;20237;-82